sensor_id;sensor_type;location;lat;lon;timestamp;temperature;humidity
18321;DHT22;54904;54.350;18.664;2023-07-31T00:02:12;20.60;99.90
18321;DHT22;54904;54.350;18.664;2023-07-31T00:04:39;20.60;99.90
18321;DHT22;54904;54.350;18.664;2023-07-31T00:07:06;20.60;99.90
18321;DHT22;54904;54.350;18.664;2023-07-31T00:09:34;20.50;99.90
18321;DHT22;54904;54.350;18.664;2023-07-31T00:12:01;20.50;99.90
18321;DHT22;54904;54.350;18.664;2023-07-31T00:14:29;20.50;99.90
18321;DHT22;54904;54.350;18.664;2023-07-31T00:16:56;20.50;99.90
18321;DHT22;54904;54.350;18.664;2023-07-31T00:19:23;20.50;99.90
18321;DHT22;54904;54.350;18.664;2023-07-31T00:21:50;20.50;99.90
18321;DHT22;54904;54.350;18.664;2023-07-31T00:24:17;20.50;99.90
18321;DHT22;54904;54.350;18.664;2023-07-31T00:26:45;20.50;99.90
18321;DHT22;54904;54.350;18.664;2023-07-31T00:29:12;20.40;99.90
18321;DHT22;54904;54.350;18.664;2023-07-31T00:31:40;20.40;99.90
18321;DHT22;54904;54.350;18.664;2023-07-31T00:34:07;20.50;99.90
18321;DHT22;54904;54.350;18.664;2023-07-31T00:36:35;20.40;99.90
18321;DHT22;54904;54.350;18.664;2023-07-31T00:39:02;20.40;99.90
18321;DHT22;54904;54.350;18.664;2023-07-31T00:41:30;20.40;99.90
18321;DHT22;54904;54.350;18.664;2023-07-31T00:43:57;20.40;99.90
18321;DHT22;54904;54.350;18.664;2023-07-31T00:46:24;20.40;99.90
18321;DHT22;54904;54.350;18.664;2023-07-31T00:48:53;20.40;99.90
18321;DHT22;54904;54.350;18.664;2023-07-31T00:51:20;20.30;99.90
18321;DHT22;54904;54.350;18.664;2023-07-31T00:53:47;20.30;99.90
18321;DHT22;54904;54.350;18.664;2023-07-31T00:56:15;20.20;99.90
18321;DHT22;54904;54.350;18.664;2023-07-31T00:58:45;20.30;99.90
18321;DHT22;54904;54.350;18.664;2023-07-31T01:03:49;20.20;99.90
18321;DHT22;54904;54.350;18.664;2023-07-31T01:06:29;20.20;99.90
18321;DHT22;54904;54.350;18.664;2023-07-31T01:09:02;20.20;99.90
18321;DHT22;54904;54.350;18.664;2023-07-31T01:11:31;20.20;99.90
18321;DHT22;54904;54.350;18.664;2023-07-31T01:13:59;20.20;99.90
18321;DHT22;54904;54.350;18.664;2023-07-31T01:16:27;20.20;99.90
18321;DHT22;54904;54.350;18.664;2023-07-31T01:18:54;20.20;99.90
18321;DHT22;54904;54.350;18.664;2023-07-31T01:24:32;20.20;99.90
18321;DHT22;54904;54.350;18.664;2023-07-31T01:27:06;20.10;99.90
18321;DHT22;54904;54.350;18.664;2023-07-31T01:29:38;20.20;99.90
18321;DHT22;54904;54.350;18.664;2023-07-31T01:32:06;20.10;99.90
18321;DHT22;54904;54.350;18.664;2023-07-31T01:34:35;20.10;99.90
18321;DHT22;54904;54.350;18.664;2023-07-31T01:37:03;20.10;99.90
18321;DHT22;54904;54.350;18.664;2023-07-31T01:39:30;20.10;99.90
18321;DHT22;54904;54.350;18.664;2023-07-31T01:41:57;20.10;99.90
18321;DHT22;54904;54.350;18.664;2023-07-31T01:44:26;20.00;99.90
18321;DHT22;54904;54.350;18.664;2023-07-31T01:46:53;20.10;99.90
18321;DHT22;54904;54.350;18.664;2023-07-31T01:49:20;20.00;99.90
18321;DHT22;54904;54.350;18.664;2023-07-31T01:51:47;20.00;99.90
18321;DHT22;54904;54.350;18.664;2023-07-31T01:54:14;19.90;99.90
18321;DHT22;54904;54.350;18.664;2023-07-31T01:56:41;19.90;99.90
18321;DHT22;54904;54.350;18.664;2023-07-31T01:59:08;19.90;99.90
18321;DHT22;54904;54.350;18.664;2023-07-31T02:01:37;19.90;99.90
18321;DHT22;54904;54.350;18.664;2023-07-31T02:04:04;19.90;99.90
18321;DHT22;54904;54.350;18.664;2023-07-31T02:06:31;19.90;99.90
18321;DHT22;54904;54.350;18.664;2023-07-31T02:08:58;19.90;99.90
18321;DHT22;54904;54.350;18.664;2023-07-31T02:11:25;19.80;99.90
18321;DHT22;54904;54.350;18.664;2023-07-31T02:13:52;19.80;99.90
18321;DHT22;54904;54.350;18.664;2023-07-31T02:16:19;19.80;99.90
18321;DHT22;54904;54.350;18.664;2023-07-31T02:18:47;19.80;99.90
18321;DHT22;54904;54.350;18.664;2023-07-31T02:21:14;19.80;99.90
18321;DHT22;54904;54.350;18.664;2023-07-31T02:23:42;19.70;99.90
18321;DHT22;54904;54.350;18.664;2023-07-31T02:26:09;19.70;99.90
18321;DHT22;54904;54.350;18.664;2023-07-31T02:28:36;19.70;99.90
18321;DHT22;54904;54.350;18.664;2023-07-31T02:31:03;19.70;99.90
18321;DHT22;54904;54.350;18.664;2023-07-31T02:33:30;19.60;99.90
18321;DHT22;54904;54.350;18.664;2023-07-31T02:35:59;19.60;99.90
18321;DHT22;54904;54.350;18.664;2023-07-31T02:38:26;19.60;99.90
18321;DHT22;54904;54.350;18.664;2023-07-31T02:40:53;19.60;99.90
18321;DHT22;54904;54.350;18.664;2023-07-31T02:43:20;19.60;99.90
18321;DHT22;54904;54.350;18.664;2023-07-31T02:45:51;19.60;99.90
18321;DHT22;54904;54.350;18.664;2023-07-31T02:48:18;19.50;99.90
18321;DHT22;54904;54.350;18.664;2023-07-31T02:50:47;19.50;99.90
18321;DHT22;54904;54.350;18.664;2023-07-31T02:53:15;19.50;99.90
18321;DHT22;54904;54.350;18.664;2023-07-31T02:55:42;19.40;99.90
18321;DHT22;54904;54.350;18.664;2023-07-31T02:58:09;19.40;99.90
18321;DHT22;54904;54.350;18.664;2023-07-31T03:00:42;19.40;99.90
18321;DHT22;54904;54.350;18.664;2023-07-31T03:03:09;19.30;99.90
18321;DHT22;54904;54.350;18.664;2023-07-31T03:05:36;19.30;99.90
18321;DHT22;54904;54.350;18.664;2023-07-31T03:08:04;19.30;99.90
18321;DHT22;54904;54.350;18.664;2023-07-31T03:10:32;19.30;99.90
18321;DHT22;54904;54.350;18.664;2023-07-31T03:12:59;19.30;99.90
18321;DHT22;54904;54.350;18.664;2023-07-31T03:15:27;19.20;99.90
18321;DHT22;54904;54.350;18.664;2023-07-31T03:17:54;19.20;99.90
18321;DHT22;54904;54.350;18.664;2023-07-31T03:20:21;19.20;99.90
18321;DHT22;54904;54.350;18.664;2023-07-31T03:22:48;19.20;99.90
18321;DHT22;54904;54.350;18.664;2023-07-31T03:25:15;19.20;99.90
18321;DHT22;54904;54.350;18.664;2023-07-31T03:27:43;19.20;99.90
18321;DHT22;54904;54.350;18.664;2023-07-31T03:30:10;19.10;99.90
18321;DHT22;54904;54.350;18.664;2023-07-31T03:32:38;19.10;99.90
18321;DHT22;54904;54.350;18.664;2023-07-31T03:35:05;19.10;99.90
18321;DHT22;54904;54.350;18.664;2023-07-31T03:37:32;19.10;99.90
18321;DHT22;54904;54.350;18.664;2023-07-31T03:39:59;19.10;99.90
18321;DHT22;54904;54.350;18.664;2023-07-31T03:42:26;19.20;99.90
18321;DHT22;54904;54.350;18.664;2023-07-31T03:44:55;19.20;99.90
18321;DHT22;54904;54.350;18.664;2023-07-31T03:47:22;19.20;99.90
18321;DHT22;54904;54.350;18.664;2023-07-31T03:49:49;19.20;99.90
18321;DHT22;54904;54.350;18.664;2023-07-31T03:52:16;19.20;99.90
18321;DHT22;54904;54.350;18.664;2023-07-31T03:54:43;19.20;99.90
18321;DHT22;54904;54.350;18.664;2023-07-31T03:57:11;19.10;99.90
18321;DHT22;54904;54.350;18.664;2023-07-31T03:59:38;19.10;99.90
18321;DHT22;54904;54.350;18.664;2023-07-31T04:02:07;19.10;99.90
18321;DHT22;54904;54.350;18.664;2023-07-31T04:04:34;19.10;99.90
18321;DHT22;54904;54.350;18.664;2023-07-31T04:07:01;19.10;99.90
18321;DHT22;54904;54.350;18.664;2023-07-31T04:09:28;19.10;99.90
18321;DHT22;54904;54.350;18.664;2023-07-31T04:11:55;19.10;99.90
18321;DHT22;54904;54.350;18.664;2023-07-31T04:14:23;19.10;99.90
18321;DHT22;54904;54.350;18.664;2023-07-31T04:16:50;19.10;99.90
18321;DHT22;54904;54.350;18.664;2023-07-31T04:19:19;19.10;99.90
18321;DHT22;54904;54.350;18.664;2023-07-31T04:21:46;19.10;99.90
18321;DHT22;54904;54.350;18.664;2023-07-31T04:24:13;19.10;99.90
18321;DHT22;54904;54.350;18.664;2023-07-31T04:26:40;19.10;99.90
18321;DHT22;54904;54.350;18.664;2023-07-31T04:29:07;19.20;99.90
18321;DHT22;54904;54.350;18.664;2023-07-31T04:31:34;19.20;99.90
18321;DHT22;54904;54.350;18.664;2023-07-31T04:34:01;19.20;99.90
18321;DHT22;54904;54.350;18.664;2023-07-31T04:36:30;19.20;99.90
18321;DHT22;54904;54.350;18.664;2023-07-31T04:38:57;19.10;99.90
18321;DHT22;54904;54.350;18.664;2023-07-31T04:41:24;19.10;99.90
18321;DHT22;54904;54.350;18.664;2023-07-31T04:43:51;19.20;99.90
18321;DHT22;54904;54.350;18.664;2023-07-31T04:46:18;19.20;99.90
18321;DHT22;54904;54.350;18.664;2023-07-31T04:48:45;19.20;99.90
18321;DHT22;54904;54.350;18.664;2023-07-31T04:51:12;19.20;99.90
18321;DHT22;54904;54.350;18.664;2023-07-31T04:53:41;19.20;99.90
18321;DHT22;54904;54.350;18.664;2023-07-31T04:56:08;19.30;99.90
18321;DHT22;54904;54.350;18.664;2023-07-31T04:58:35;19.20;99.90
18321;DHT22;54904;54.350;18.664;2023-07-31T05:01:02;19.20;99.90
18321;DHT22;54904;54.350;18.664;2023-07-31T05:03:29;19.30;99.90
18321;DHT22;54904;54.350;18.664;2023-07-31T05:05:56;19.30;99.90
18321;DHT22;54904;54.350;18.664;2023-07-31T05:08:23;19.40;99.90
18321;DHT22;54904;54.350;18.664;2023-07-31T05:10:52;19.40;99.90
18321;DHT22;54904;54.350;18.664;2023-07-31T05:13:19;19.40;99.90
18321;DHT22;54904;54.350;18.664;2023-07-31T05:15:46;19.40;99.90
18321;DHT22;54904;54.350;18.664;2023-07-31T05:18:15;19.40;99.90
18321;DHT22;54904;54.350;18.664;2023-07-31T05:20:42;19.50;99.90
18321;DHT22;54904;54.350;18.664;2023-07-31T05:23:09;19.50;99.90
18321;DHT22;54904;54.350;18.664;2023-07-31T05:25:36;19.50;99.90
18321;DHT22;54904;54.350;18.664;2023-07-31T05:28:04;19.50;99.90
18321;DHT22;54904;54.350;18.664;2023-07-31T05:30:31;19.60;99.90
18321;DHT22;54904;54.350;18.664;2023-07-31T05:32:58;19.60;99.90
18321;DHT22;54904;54.350;18.664;2023-07-31T05:35:25;19.60;99.90
18321;DHT22;54904;54.350;18.664;2023-07-31T05:37:52;19.60;99.90
18321;DHT22;54904;54.350;18.664;2023-07-31T05:40:19;19.60;99.90
18321;DHT22;54904;54.350;18.664;2023-07-31T05:42:46;19.60;99.90
18321;DHT22;54904;54.350;18.664;2023-07-31T05:45:15;19.60;99.90
18321;DHT22;54904;54.350;18.664;2023-07-31T05:47:42;19.60;99.90
18321;DHT22;54904;54.350;18.664;2023-07-31T05:50:09;19.60;99.90
18321;DHT22;54904;54.350;18.664;2023-07-31T05:52:36;19.60;99.90
18321;DHT22;54904;54.350;18.664;2023-07-31T05:55:04;19.60;99.90
18321;DHT22;54904;54.350;18.664;2023-07-31T05:57:31;19.70;99.90
18321;DHT22;54904;54.350;18.664;2023-07-31T05:59:58;19.70;99.90
18321;DHT22;54904;54.350;18.664;2023-07-31T06:02:26;19.70;99.90
18321;DHT22;54904;54.350;18.664;2023-07-31T06:04:53;19.80;99.90
18321;DHT22;54904;54.350;18.664;2023-07-31T06:07:20;19.80;99.90
18321;DHT22;54904;54.350;18.664;2023-07-31T06:09:47;19.80;99.90
18321;DHT22;54904;54.350;18.664;2023-07-31T06:12:15;19.80;99.90
18321;DHT22;54904;54.350;18.664;2023-07-31T06:14:44;19.80;99.90
18321;DHT22;54904;54.350;18.664;2023-07-31T06:17:11;19.80;99.90
18321;DHT22;54904;54.350;18.664;2023-07-31T06:19:39;19.80;99.90
18321;DHT22;54904;54.350;18.664;2023-07-31T06:22:06;19.80;99.90
18321;DHT22;54904;54.350;18.664;2023-07-31T06:24:33;19.90;99.90
18321;DHT22;54904;54.350;18.664;2023-07-31T06:27:00;19.90;99.90
18321;DHT22;54904;54.350;18.664;2023-07-31T06:29:29;20.00;99.90
18321;DHT22;54904;54.350;18.664;2023-07-31T06:31:56;19.90;99.90
18321;DHT22;54904;54.350;18.664;2023-07-31T06:34:23;20.00;99.90
18321;DHT22;54904;54.350;18.664;2023-07-31T06:36:52;20.00;99.90
18321;DHT22;54904;54.350;18.664;2023-07-31T06:39:19;20.00;99.90
18321;DHT22;54904;54.350;18.664;2023-07-31T06:41:46;20.00;99.90
18321;DHT22;54904;54.350;18.664;2023-07-31T06:44:14;20.00;99.90
18321;DHT22;54904;54.350;18.664;2023-07-31T06:46:42;20.00;99.90
18321;DHT22;54904;54.350;18.664;2023-07-31T06:49:09;20.10;99.90
18321;DHT22;54904;54.350;18.664;2023-07-31T06:51:36;20.20;99.90
18321;DHT22;54904;54.350;18.664;2023-07-31T06:54:05;20.30;99.90
18321;DHT22;54904;54.350;18.664;2023-07-31T06:56:32;20.30;99.90
18321;DHT22;54904;54.350;18.664;2023-07-31T06:58:59;20.30;99.90
18321;DHT22;54904;54.350;18.664;2023-07-31T07:01:26;20.30;99.90
18321;DHT22;54904;54.350;18.664;2023-07-31T07:03:54;20.40;99.90
18321;DHT22;54904;54.350;18.664;2023-07-31T07:06:22;20.50;99.90
18321;DHT22;54904;54.350;18.664;2023-07-31T07:08:49;20.50;99.90
18321;DHT22;54904;54.350;18.664;2023-07-31T07:11:17;20.60;99.90
18321;DHT22;54904;54.350;18.664;2023-07-31T07:13:45;20.70;99.90
18321;DHT22;54904;54.350;18.664;2023-07-31T07:16:12;20.80;99.90
18321;DHT22;54904;54.350;18.664;2023-07-31T07:18:39;20.80;99.90
18321;DHT22;54904;54.350;18.664;2023-07-31T07:21:06;20.90;99.90
18321;DHT22;54904;54.350;18.664;2023-07-31T07:23:34;20.90;99.90
18321;DHT22;54904;54.350;18.664;2023-07-31T07:26:01;20.90;99.90
18321;DHT22;54904;54.350;18.664;2023-07-31T07:28:29;21.00;99.90
18321;DHT22;54904;54.350;18.664;2023-07-31T07:30:56;21.00;99.90
18321;DHT22;54904;54.350;18.664;2023-07-31T07:33:23;21.10;99.90
18321;DHT22;54904;54.350;18.664;2023-07-31T07:35:51;21.10;99.90
18321;DHT22;54904;54.350;18.664;2023-07-31T07:38:18;21.20;99.90
18321;DHT22;54904;54.350;18.664;2023-07-31T07:40:46;21.20;99.90
18321;DHT22;54904;54.350;18.664;2023-07-31T07:43:16;21.30;99.90
18321;DHT22;54904;54.350;18.664;2023-07-31T07:45:44;21.40;99.90
18321;DHT22;54904;54.350;18.664;2023-07-31T07:48:11;21.40;99.90
18321;DHT22;54904;54.350;18.664;2023-07-31T07:50:38;21.50;99.90
18321;DHT22;54904;54.350;18.664;2023-07-31T07:53:06;21.60;99.90
18321;DHT22;54904;54.350;18.664;2023-07-31T07:55:33;21.70;99.90
18321;DHT22;54904;54.350;18.664;2023-07-31T07:58:00;21.80;99.90
18321;DHT22;54904;54.350;18.664;2023-07-31T08:00:27;21.80;99.90
18321;DHT22;54904;54.350;18.664;2023-07-31T08:02:55;21.90;99.00
18321;DHT22;54904;54.350;18.664;2023-07-31T08:05:24;21.90;98.70
18321;DHT22;54904;54.350;18.664;2023-07-31T08:07:51;21.90;98.80
18321;DHT22;54904;54.350;18.664;2023-07-31T08:10:18;22.00;98.80
18321;DHT22;54904;54.350;18.664;2023-07-31T08:12:45;21.90;98.60
18321;DHT22;54904;54.350;18.664;2023-07-31T08:15:12;22.00;98.70
18321;DHT22;54904;54.350;18.664;2023-07-31T08:17:39;22.00;98.70
18321;DHT22;54904;54.350;18.664;2023-07-31T08:20:09;22.00;98.40
18321;DHT22;54904;54.350;18.664;2023-07-31T08:22:36;22.00;98.20
18321;DHT22;54904;54.350;18.664;2023-07-31T08:25:04;22.00;97.90
18321;DHT22;54904;54.350;18.664;2023-07-31T08:27:32;22.00;97.60
18321;DHT22;54904;54.350;18.664;2023-07-31T08:29:59;22.00;96.90
18321;DHT22;54904;54.350;18.664;2023-07-31T08:32:26;22.00;96.70
18321;DHT22;54904;54.350;18.664;2023-07-31T08:34:53;22.10;96.70
18321;DHT22;54904;54.350;18.664;2023-07-31T08:37:21;22.10;96.30
18321;DHT22;54904;54.350;18.664;2023-07-31T08:39:48;22.20;96.50
18321;DHT22;54904;54.350;18.664;2023-07-31T08:42:15;22.30;96.30
18321;DHT22;54904;54.350;18.664;2023-07-31T08:44:43;22.40;96.30
18321;DHT22;54904;54.350;18.664;2023-07-31T08:47:11;22.40;96.10
18321;DHT22;54904;54.350;18.664;2023-07-31T08:49:38;22.40;95.00
18321;DHT22;54904;54.350;18.664;2023-07-31T08:52:07;22.40;94.40
18321;DHT22;54904;54.350;18.664;2023-07-31T08:54:35;22.40;94.50
18321;DHT22;54904;54.350;18.664;2023-07-31T08:57:04;22.40;94.60
18321;DHT22;54904;54.350;18.664;2023-07-31T08:59:31;22.40;94.90
18321;DHT22;54904;54.350;18.664;2023-07-31T09:02:05;22.50;94.70
18321;DHT22;54904;54.350;18.664;2023-07-31T09:04:32;22.60;94.40
18321;DHT22;54904;54.350;18.664;2023-07-31T09:07:00;22.70;94.40
18321;DHT22;54904;54.350;18.664;2023-07-31T09:09:29;22.80;93.50
18321;DHT22;54904;54.350;18.664;2023-07-31T09:11:57;22.90;93.30
18321;DHT22;54904;54.350;18.664;2023-07-31T09:14:25;22.90;93.00
18321;DHT22;54904;54.350;18.664;2023-07-31T09:16:54;22.90;92.80
18321;DHT22;54904;54.350;18.664;2023-07-31T09:19:28;22.90;93.20
18321;DHT22;54904;54.350;18.664;2023-07-31T09:21:55;22.90;92.80
18321;DHT22;54904;54.350;18.664;2023-07-31T09:24:26;23.00;92.60
18321;DHT22;54904;54.350;18.664;2023-07-31T09:26:54;23.00;92.60
18321;DHT22;54904;54.350;18.664;2023-07-31T09:29:23;23.10;92.50
18321;DHT22;54904;54.350;18.664;2023-07-31T09:31:52;23.20;92.20
18321;DHT22;54904;54.350;18.664;2023-07-31T09:34:20;23.30;91.30
18321;DHT22;54904;54.350;18.664;2023-07-31T09:36:48;23.30;91.10
18321;DHT22;54904;54.350;18.664;2023-07-31T09:39:17;23.40;91.20
18321;DHT22;54904;54.350;18.664;2023-07-31T09:41:47;23.40;91.30
18321;DHT22;54904;54.350;18.664;2023-07-31T09:44:15;23.50;91.40
18321;DHT22;54904;54.350;18.664;2023-07-31T09:46:43;23.60;90.90
18321;DHT22;54904;54.350;18.664;2023-07-31T09:49:11;23.70;90.80
18321;DHT22;54904;54.350;18.664;2023-07-31T09:51:40;23.80;90.60
18321;DHT22;54904;54.350;18.664;2023-07-31T09:54:11;23.80;90.40
18321;DHT22;54904;54.350;18.664;2023-07-31T09:56:44;23.80;90.00
18321;DHT22;54904;54.350;18.664;2023-07-31T09:59:13;23.90;89.60
18321;DHT22;54904;54.350;18.664;2023-07-31T10:01:42;24.00;90.00
18321;DHT22;54904;54.350;18.664;2023-07-31T10:04:11;24.10;90.20
18321;DHT22;54904;54.350;18.664;2023-07-31T10:06:38;24.20;90.20
18321;DHT22;54904;54.350;18.664;2023-07-31T10:09:08;24.20;90.10
18321;DHT22;54904;54.350;18.664;2023-07-31T10:11:38;24.30;89.20
18321;DHT22;54904;54.350;18.664;2023-07-31T10:14:07;24.40;88.00
18321;DHT22;54904;54.350;18.664;2023-07-31T10:16:38;24.30;87.30
18321;DHT22;54904;54.350;18.664;2023-07-31T10:19:08;24.30;85.90
18321;DHT22;54904;54.350;18.664;2023-07-31T10:21:36;24.40;86.00
18321;DHT22;54904;54.350;18.664;2023-07-31T10:24:05;24.50;85.60
18321;DHT22;54904;54.350;18.664;2023-07-31T10:26:32;24.60;84.50
18321;DHT22;54904;54.350;18.664;2023-07-31T10:29:00;24.60;84.70
18321;DHT22;54904;54.350;18.664;2023-07-31T10:31:27;24.70;84.60
18321;DHT22;54904;54.350;18.664;2023-07-31T10:33:55;24.70;83.90
18321;DHT22;54904;54.350;18.664;2023-07-31T10:36:24;24.60;83.40
18321;DHT22;54904;54.350;18.664;2023-07-31T10:38:51;24.50;83.60
18321;DHT22;54904;54.350;18.664;2023-07-31T10:41:18;24.50;84.30
18321;DHT22;54904;54.350;18.664;2023-07-31T10:43:46;24.50;83.80
18321;DHT22;54904;54.350;18.664;2023-07-31T10:46:14;24.40;82.30
18321;DHT22;54904;54.350;18.664;2023-07-31T10:48:42;24.40;81.50
18321;DHT22;54904;54.350;18.664;2023-07-31T10:51:10;24.40;82.30
18321;DHT22;54904;54.350;18.664;2023-07-31T10:53:40;24.30;82.30
18321;DHT22;54904;54.350;18.664;2023-07-31T10:56:09;24.20;82.10
18321;DHT22;54904;54.350;18.664;2023-07-31T10:58:38;24.20;81.90
18321;DHT22;54904;54.350;18.664;2023-07-31T11:01:06;24.20;82.40
18321;DHT22;54904;54.350;18.664;2023-07-31T11:03:43;24.20;82.80
18321;DHT22;54904;54.350;18.664;2023-07-31T11:06:10;24.10;82.40
18321;DHT22;54904;54.350;18.664;2023-07-31T11:08:44;24.10;82.10
18321;DHT22;54904;54.350;18.664;2023-07-31T11:11:13;24.10;81.30
18321;DHT22;54904;54.350;18.664;2023-07-31T11:13:43;24.10;81.30
18321;DHT22;54904;54.350;18.664;2023-07-31T11:16:11;24.00;81.30
18321;DHT22;54904;54.350;18.664;2023-07-31T11:18:39;24.10;82.20
18321;DHT22;54904;54.350;18.664;2023-07-31T11:21:07;24.00;82.80
18321;DHT22;54904;54.350;18.664;2023-07-31T11:23:37;24.00;82.70
18321;DHT22;54904;54.350;18.664;2023-07-31T11:26:06;23.90;83.40
18321;DHT22;54904;54.350;18.664;2023-07-31T11:28:34;23.90;83.60
18321;DHT22;54904;54.350;18.664;2023-07-31T11:31:02;23.90;84.10
18321;DHT22;54904;54.350;18.664;2023-07-31T11:33:29;23.90;83.90
18321;DHT22;54904;54.350;18.664;2023-07-31T11:35:57;23.80;83.20
18321;DHT22;54904;54.350;18.664;2023-07-31T11:38:26;23.80;83.80
18321;DHT22;54904;54.350;18.664;2023-07-31T11:40:55;23.70;84.90
18321;DHT22;54904;54.350;18.664;2023-07-31T11:43:24;23.70;85.30
18321;DHT22;54904;54.350;18.664;2023-07-31T11:45:54;23.60;86.20
18321;DHT22;54904;54.350;18.664;2023-07-31T11:48:23;23.60;86.60
18321;DHT22;54904;54.350;18.664;2023-07-31T11:50:51;23.60;86.60
18321;DHT22;54904;54.350;18.664;2023-07-31T11:53:22;23.60;86.90
18321;DHT22;54904;54.350;18.664;2023-07-31T11:55:51;23.50;86.80
18321;DHT22;54904;54.350;18.664;2023-07-31T11:58:19;23.50;86.00
18321;DHT22;54904;54.350;18.664;2023-07-31T12:00:48;23.50;86.30
18321;DHT22;54904;54.350;18.664;2023-07-31T12:03:16;23.50;86.70
18321;DHT22;54904;54.350;18.664;2023-07-31T12:05:43;23.50;87.00
18321;DHT22;54904;54.350;18.664;2023-07-31T12:08:11;23.50;87.00
18321;DHT22;54904;54.350;18.664;2023-07-31T12:10:38;23.50;87.10
18321;DHT22;54904;54.350;18.664;2023-07-31T12:13:08;23.50;87.50
18321;DHT22;54904;54.350;18.664;2023-07-31T12:15:41;23.50;87.70
18321;DHT22;54904;54.350;18.664;2023-07-31T12:18:11;23.40;87.50
18321;DHT22;54904;54.350;18.664;2023-07-31T12:20:44;23.40;88.60
18321;DHT22;54904;54.350;18.664;2023-07-31T12:23:15;23.40;88.90
18321;DHT22;54904;54.350;18.664;2023-07-31T12:25:43;23.30;89.30
18321;DHT22;54904;54.350;18.664;2023-07-31T12:28:10;23.30;89.30
18321;DHT22;54904;54.350;18.664;2023-07-31T12:30:40;23.30;89.30
18321;DHT22;54904;54.350;18.664;2023-07-31T12:33:14;23.30;89.50
18321;DHT22;54904;54.350;18.664;2023-07-31T12:35:43;23.20;90.10
18321;DHT22;54904;54.350;18.664;2023-07-31T12:38:12;23.20;90.20
18321;DHT22;54904;54.350;18.664;2023-07-31T12:40:40;23.20;90.50
18321;DHT22;54904;54.350;18.664;2023-07-31T12:43:08;23.10;90.60
18321;DHT22;54904;54.350;18.664;2023-07-31T12:45:35;23.10;90.70
18321;DHT22;54904;54.350;18.664;2023-07-31T12:48:03;23.10;90.90
18321;DHT22;54904;54.350;18.664;2023-07-31T12:50:31;23.00;90.80
18321;DHT22;54904;54.350;18.664;2023-07-31T12:52:58;23.00;90.90
18321;DHT22;54904;54.350;18.664;2023-07-31T12:55:25;23.00;91.10
18321;DHT22;54904;54.350;18.664;2023-07-31T12:57:53;23.00;91.20
18321;DHT22;54904;54.350;18.664;2023-07-31T13:00:20;23.00;91.50
18321;DHT22;54904;54.350;18.664;2023-07-31T13:02:47;22.90;91.20
18321;DHT22;54904;54.350;18.664;2023-07-31T13:05:14;22.90;91.20
18321;DHT22;54904;54.350;18.664;2023-07-31T13:07:43;22.90;91.30
18321;DHT22;54904;54.350;18.664;2023-07-31T13:10:10;22.90;91.50
18321;DHT22;54904;54.350;18.664;2023-07-31T13:12:37;22.90;91.60
18321;DHT22;54904;54.350;18.664;2023-07-31T13:15:05;22.80;91.50
18321;DHT22;54904;54.350;18.664;2023-07-31T13:17:33;22.80;91.60
18321;DHT22;54904;54.350;18.664;2023-07-31T13:20:00;22.80;91.50
18321;DHT22;54904;54.350;18.664;2023-07-31T13:22:27;22.80;91.50
18321;DHT22;54904;54.350;18.664;2023-07-31T13:24:56;22.70;91.50
18321;DHT22;54904;54.350;18.664;2023-07-31T13:27:23;22.70;91.60
18321;DHT22;54904;54.350;18.664;2023-07-31T13:29:50;22.70;91.70
18321;DHT22;54904;54.350;18.664;2023-07-31T13:32:18;22.60;92.00
18321;DHT22;54904;54.350;18.664;2023-07-31T13:34:47;22.60;92.20
18321;DHT22;54904;54.350;18.664;2023-07-31T13:37:15;22.60;92.40
18321;DHT22;54904;54.350;18.664;2023-07-31T13:39:42;22.60;92.60
18321;DHT22;54904;54.350;18.664;2023-07-31T13:42:11;22.60;92.60
18321;DHT22;54904;54.350;18.664;2023-07-31T13:44:38;22.60;92.80
18321;DHT22;54904;54.350;18.664;2023-07-31T13:47:06;22.60;92.90
18321;DHT22;54904;54.350;18.664;2023-07-31T13:49:34;22.60;93.50
18321;DHT22;54904;54.350;18.664;2023-07-31T13:52:01;22.50;93.70
18321;DHT22;54904;54.350;18.664;2023-07-31T13:54:28;22.50;93.90
18321;DHT22;54904;54.350;18.664;2023-07-31T13:56:55;22.50;94.00
18321;DHT22;54904;54.350;18.664;2023-07-31T13:59:24;22.40;94.20
18321;DHT22;54904;54.350;18.664;2023-07-31T14:01:51;22.40;94.20
18321;DHT22;54904;54.350;18.664;2023-07-31T14:04:18;22.40;94.40
18321;DHT22;54904;54.350;18.664;2023-07-31T14:06:45;22.40;94.40
18321;DHT22;54904;54.350;18.664;2023-07-31T14:09:13;22.30;94.40
18321;DHT22;54904;54.350;18.664;2023-07-31T14:11:41;22.30;94.50
18321;DHT22;54904;54.350;18.664;2023-07-31T14:14:09;22.30;94.80
18321;DHT22;54904;54.350;18.664;2023-07-31T14:16:37;22.30;94.60
18321;DHT22;54904;54.350;18.664;2023-07-31T14:19:04;22.30;94.50
18321;DHT22;54904;54.350;18.664;2023-07-31T14:21:33;22.20;94.50
18321;DHT22;54904;54.350;18.664;2023-07-31T14:24:00;22.20;94.70
18321;DHT22;54904;54.350;18.664;2023-07-31T14:26:27;22.10;94.80
18321;DHT22;54904;54.350;18.664;2023-07-31T14:28:54;22.10;94.90
18321;DHT22;54904;54.350;18.664;2023-07-31T14:31:21;22.10;95.20
18321;DHT22;54904;54.350;18.664;2023-07-31T14:33:49;22.00;95.40
18321;DHT22;54904;54.350;18.664;2023-07-31T14:36:17;22.00;95.60
18321;DHT22;54904;54.350;18.664;2023-07-31T14:38:44;22.00;95.80
18321;DHT22;54904;54.350;18.664;2023-07-31T14:41:11;21.90;96.40
18321;DHT22;54904;54.350;18.664;2023-07-31T14:43:38;21.90;96.80
18321;DHT22;54904;54.350;18.664;2023-07-31T14:46:05;21.80;97.40
18321;DHT22;54904;54.350;18.664;2023-07-31T14:48:32;21.70;97.70
18321;DHT22;54904;54.350;18.664;2023-07-31T14:51:01;21.70;97.90
18321;DHT22;54904;54.350;18.664;2023-07-31T14:53:28;21.70;98.40
18321;DHT22;54904;54.350;18.664;2023-07-31T14:55:55;21.60;98.80
18321;DHT22;54904;54.350;18.664;2023-07-31T14:58:22;21.60;98.90
18321;DHT22;54904;54.350;18.664;2023-07-31T15:00:49;21.60;98.80
18321;DHT22;54904;54.350;18.664;2023-07-31T15:03:16;21.70;98.90
18321;DHT22;54904;54.350;18.664;2023-07-31T15:05:43;21.70;99.00
18321;DHT22;54904;54.350;18.664;2023-07-31T15:08:12;21.80;98.80
18321;DHT22;54904;54.350;18.664;2023-07-31T15:10:39;21.80;98.90
18321;DHT22;54904;54.350;18.664;2023-07-31T15:13:06;21.80;99.40
18321;DHT22;54904;54.350;18.664;2023-07-31T15:15:33;21.90;99.90
18321;DHT22;54904;54.350;18.664;2023-07-31T15:18:00;21.90;99.90
18321;DHT22;54904;54.350;18.664;2023-07-31T15:20:28;21.90;99.90
18321;DHT22;54904;54.350;18.664;2023-07-31T15:22:55;21.90;99.90
18321;DHT22;54904;54.350;18.664;2023-07-31T15:25:24;21.80;99.90